createdAt,value
2022-10-17T00:01:40.402Z,13.22
2022-10-17T00:04:11.070Z,13.21
2022-10-17T00:06:42.540Z,13.20
2022-10-17T00:09:12.839Z,13.20
2022-10-17T00:11:43.527Z,13.19
2022-10-17T00:14:14.090Z,13.19
2022-10-17T00:16:44.759Z,13.18
2022-10-17T00:19:15.377Z,13.15
2022-10-17T00:21:46.325Z,13.10
2022-10-17T00:24:17.242Z,13.07
2022-10-17T00:26:47.855Z,13.05
2022-10-17T00:29:18.496Z,13.06
2022-10-17T00:31:49.840Z,13.07
2022-10-17T00:34:20.210Z,13.09
2022-10-17T00:36:51.105Z,13.09
2022-10-17T00:39:21.797Z,13.09
2022-10-17T00:41:52.139Z,13.09
2022-10-17T00:44:57.676Z,13.08
2022-10-17T00:47:29.093Z,13.07
2022-10-17T00:50:03.254Z,13.06
2022-10-17T00:52:35.240Z,13.06
2022-10-17T00:55:11.928Z,13.06
2022-10-17T00:57:44.041Z,13.06
2022-10-17T01:00:17.472Z,13.07
2022-10-17T01:02:48.344Z,13.08
2022-10-17T01:05:20.321Z,13.10
2022-10-17T01:07:54.037Z,13.10
2022-10-17T01:10:26.274Z,13.11
2022-10-17T01:13:12.549Z,13.10
2022-10-17T01:15:53.789Z,13.11
2022-10-17T01:18:39.392Z,13.11
2022-10-17T01:21:27.897Z,13.10
2022-10-17T01:24:34.666Z,13.09
2022-10-17T01:27:37.072Z,13.07
2022-10-17T01:30:26.929Z,13.07
2022-10-17T01:33:00.124Z,13.06
2022-10-17T01:35:38.420Z,13.05
2022-10-17T01:38:12.710Z,13.04
2022-10-17T01:40:50.151Z,13.04
2022-10-17T01:43:25.602Z,13.03
2022-10-17T01:46:00.714Z,13.01
2022-10-17T01:48:36.382Z,13.01
2022-10-17T01:51:13.762Z,13.01
2022-10-17T01:53:50.992Z,12.99
2022-10-17T01:56:26.032Z,12.98
2022-10-17T01:59:01.854Z,12.97
2022-10-17T02:01:33.580Z,12.97
2022-10-17T02:04:06.832Z,12.96
2022-10-17T02:06:39.360Z,12.96
2022-10-17T02:09:22.107Z,12.97
2022-10-17T02:12:09.604Z,12.96
2022-10-17T02:14:55.607Z,12.95
2022-10-17T02:17:38.583Z,12.95
2022-10-17T02:20:17.761Z,12.96
2022-10-17T02:22:53.326Z,12.96
2022-10-17T02:25:37.050Z,12.95
2022-10-17T02:28:18.047Z,12.95
2022-10-17T02:30:53.015Z,12.95
2022-10-17T02:33:29.552Z,12.94
2022-10-17T02:36:03.129Z,12.93
2022-10-17T02:38:35.619Z,12.94
2022-10-17T02:41:07.275Z,12.93
2022-10-17T02:43:40.347Z,12.92
2022-10-17T02:46:11.285Z,12.91
2022-10-17T02:48:48.689Z,12.90
2022-10-17T02:51:28.966Z,12.89
2022-10-17T02:54:08.670Z,12.88
2022-10-17T02:56:42.724Z,12.87
2022-10-17T02:59:18.846Z,12.85
2022-10-17T03:01:51.580Z,12.84
2022-10-17T03:04:22.372Z,12.83
2022-10-17T03:06:53.151Z,12.81
2022-10-17T03:09:24.408Z,12.80
2022-10-17T03:11:54.793Z,12.78
2022-10-17T03:14:25.707Z,12.77
2022-10-17T03:16:56.347Z,12.75
2022-10-17T03:19:26.822Z,12.74
2022-10-17T03:21:57.919Z,12.72
2022-10-17T03:24:29.270Z,12.70
2022-10-17T03:27:00.237Z,12.68
2022-10-17T03:29:31.257Z,12.67
2022-10-17T03:32:02.004Z,12.66
2022-10-17T03:34:32.633Z,12.65
2022-10-17T03:37:03.293Z,12.63
2022-10-17T03:39:34.113Z,12.62
2022-10-17T03:42:05.452Z,12.59
2022-10-17T03:44:35.769Z,12.57
2022-10-17T03:47:09.207Z,12.55
2022-10-17T03:49:42.606Z,12.53
2022-10-17T03:52:15.088Z,12.52
2022-10-17T03:54:45.583Z,12.51
2022-10-17T03:57:16.310Z,12.49
2022-10-17T03:59:47.603Z,12.46
2022-10-17T04:02:18.539Z,12.45
2022-10-17T04:04:48.932Z,12.44
2022-10-17T04:07:19.983Z,12.42
2022-10-17T04:09:50.361Z,12.41
2022-10-17T04:12:20.733Z,12.40
2022-10-17T04:14:51.095Z,12.38
2022-10-17T04:17:21.536Z,12.36
2022-10-17T04:19:53.292Z,12.34
2022-10-17T04:22:23.670Z,12.33
2022-10-17T04:24:53.997Z,12.32
2022-10-17T04:27:24.587Z,12.31
2022-10-17T04:29:55.137Z,12.30
2022-10-17T04:32:25.970Z,12.27
2022-10-17T04:34:56.492Z,12.28
2022-10-17T04:37:26.959Z,12.28
2022-10-17T04:39:57.684Z,12.26
2022-10-17T04:42:29.991Z,12.24
2022-10-17T04:45:01.155Z,12.22
2022-10-17T04:47:31.762Z,12.21
2022-10-17T04:50:02.382Z,12.20
2022-10-17T04:52:33.381Z,12.19
2022-10-17T04:55:04.387Z,12.19
2022-10-17T04:57:37.483Z,12.17
2022-10-17T05:02:45.578Z,12.14
2022-10-17T05:05:16.324Z,12.12
2022-10-17T05:07:47.282Z,12.10
2022-10-17T05:10:18.230Z,12.08
2022-10-17T05:12:49.319Z,12.06
2022-10-17T05:15:20.025Z,12.04
2022-10-17T05:17:50.655Z,12.03
2022-10-17T05:20:21.464Z,12.01
2022-10-17T05:22:52.428Z,12.00
2022-10-17T05:25:22.935Z,11.98
2022-10-17T05:27:53.292Z,11.96
2022-10-17T05:30:23.948Z,11.96
2022-10-17T05:32:56.480Z,11.97
2022-10-17T05:35:27.227Z,12.00
2022-10-17T05:37:57.633Z,12.02
2022-10-17T05:40:28.322Z,12.04
2022-10-17T05:42:59.129Z,12.07
2022-10-17T05:45:30.030Z,12.08
2022-10-17T05:48:00.949Z,12.10
2022-10-17T05:50:31.669Z,12.13
2022-10-17T05:53:02.953Z,12.14
2022-10-17T05:55:33.973Z,12.16
2022-10-17T05:58:04.677Z,12.18
2022-10-17T06:00:36.022Z,12.20
2022-10-17T06:03:06.927Z,12.22
2022-10-17T06:05:39.054Z,12.23
2022-10-17T06:08:09.742Z,12.24
2022-10-17T06:10:40.926Z,12.25
2022-10-17T06:13:11.605Z,12.27
2022-10-17T06:15:42.896Z,12.28
2022-10-17T06:18:13.352Z,12.28
2022-10-17T06:20:46.120Z,12.29
2022-10-17T06:23:17.001Z,12.30
2022-10-17T06:25:47.318Z,12.31
2022-10-17T06:28:17.773Z,12.31
2022-10-17T06:30:48.424Z,12.31
2022-10-17T06:33:20.853Z,12.32
2022-10-17T06:35:55.364Z,12.33
2022-10-17T06:38:26.119Z,12.34
2022-10-17T06:40:57.854Z,12.34
2022-10-17T06:43:29.878Z,12.36
2022-10-17T06:46:00.277Z,12.37
2022-10-17T06:48:30.666Z,12.38
2022-10-17T06:51:04.496Z,12.40
2022-10-17T06:53:36.295Z,12.43
2022-10-17T06:56:08.209Z,12.44
2022-10-17T06:58:40.583Z,12.45
2022-10-17T07:01:12.979Z,12.49
2022-10-17T07:03:43.697Z,12.51
2022-10-17T07:06:14.030Z,12.54
2022-10-17T07:08:46.983Z,12.59
2022-10-17T07:11:19.561Z,12.63
2022-10-17T07:13:50.636Z,12.68
2022-10-17T07:16:21.336Z,12.74
2022-10-17T07:18:54.342Z,12.80
2022-10-17T07:21:25.248Z,12.87
2022-10-17T07:23:55.646Z,12.94
2022-10-17T07:26:26.305Z,13.01
2022-10-17T07:28:57.605Z,13.07
2022-10-17T07:31:28.152Z,13.13
2022-10-17T07:34:00.177Z,13.17
2022-10-17T07:36:30.561Z,13.21
2022-10-17T07:39:00.901Z,13.25
2022-10-17T07:41:31.251Z,13.28
2022-10-17T07:44:01.655Z,13.32
2022-10-17T07:46:32.198Z,13.35
2022-10-17T07:49:02.629Z,13.38
2022-10-17T07:51:33.610Z,13.41
2022-10-17T07:54:05.735Z,13.45
2022-10-17T07:56:36.221Z,13.50
2022-10-17T07:59:09.197Z,13.55
2022-10-17T08:01:40.007Z,13.59
2022-10-17T08:04:10.731Z,13.65
2022-10-17T08:06:41.185Z,13.71
2022-10-17T08:09:11.618Z,13.79
2022-10-17T08:11:43.946Z,13.87
2022-10-17T08:14:16.843Z,13.96
2022-10-17T08:16:47.183Z,14.06
2022-10-17T08:19:17.900Z,14.17
2022-10-17T08:21:50.046Z,14.26
2022-10-17T08:24:20.836Z,14.35
2022-10-17T08:26:53.366Z,14.46
2022-10-17T08:29:23.993Z,14.54
2022-10-17T08:31:58.673Z,14.63
2022-10-17T08:34:31.933Z,14.72
2022-10-17T08:37:02.351Z,14.83
2022-10-17T08:39:32.863Z,14.95
2022-10-17T08:42:19.281Z,15.06
2022-10-17T08:44:58.377Z,15.18
2022-10-17T08:47:37.217Z,15.30
2022-10-17T08:50:13.593Z,15.40
2022-10-17T08:52:47.988Z,15.50
2022-10-17T08:55:29.621Z,15.59
2022-10-17T08:58:00.482Z,15.67
2022-10-17T09:00:33.338Z,15.77
2022-10-17T09:03:17.776Z,15.88
2022-10-17T09:05:54.933Z,16.01
2022-10-17T09:08:37.287Z,16.11
2022-10-17T09:11:18.258Z,16.25
2022-10-17T09:14:01.984Z,16.37
2022-10-17T09:16:46.221Z,16.49
2022-10-17T09:19:22.438Z,16.62
2022-10-17T09:21:59.421Z,16.72
2022-10-17T09:24:41.662Z,16.84
2022-10-17T09:27:20.929Z,16.95
2022-10-17T09:29:56.482Z,17.05
2022-10-17T09:32:28.272Z,17.14
2022-10-17T09:34:58.935Z,17.24
2022-10-17T09:37:33.808Z,17.33
2022-10-17T09:40:07.530Z,17.41
2022-10-17T09:42:38.501Z,17.48
2022-10-17T09:45:24.695Z,17.52
2022-10-17T09:48:03.127Z,17.58
2022-10-17T09:50:35.326Z,17.63
2022-10-17T09:53:14.852Z,17.69
2022-10-17T09:55:48.237Z,17.74
2022-10-17T09:58:18.593Z,17.79
2022-10-17T10:00:49.900Z,17.83
2022-10-17T10:03:22.782Z,17.86
2022-10-17T10:06:14.945Z,17.91
2022-10-17T10:08:55.189Z,17.96
2022-10-17T10:11:45.510Z,18.02
2022-10-17T10:14:24.111Z,18.08
2022-10-17T10:16:55.852Z,18.12
2022-10-17T10:19:32.188Z,18.18
2022-10-17T10:22:05.021Z,18.21
2022-10-17T10:24:35.884Z,18.24
2022-10-17T10:27:12.039Z,18.27
2022-10-17T10:29:44.995Z,18.30
2022-10-17T10:32:23.337Z,18.33
2022-10-17T10:34:56.829Z,18.40
2022-10-17T10:37:32.803Z,18.47
2022-10-17T10:40:05.637Z,18.56
2022-10-17T10:42:39.627Z,18.66
2022-10-17T10:45:35.873Z,18.77
2022-10-17T10:48:22.490Z,18.87
2022-10-17T10:50:57.232Z,18.96
2022-10-17T10:53:40.677Z,19.03
2022-10-17T10:56:18.153Z,19.12
2022-10-17T10:58:55.256Z,19.18
2022-10-17T11:01:31.857Z,19.26
2022-10-17T11:04:18.494Z,19.33
2022-10-17T11:06:52.472Z,19.38
2022-10-17T11:09:43.845Z,19.39
2022-10-17T11:12:21.150Z,19.44
2022-10-17T11:14:57.210Z,19.46
2022-10-17T11:17:36.081Z,19.47
2022-10-17T11:20:23.036Z,19.50
2022-10-17T11:22:59.821Z,19.54
2022-10-17T11:25:37.646Z,19.55
2022-10-17T11:28:15.856Z,19.56
2022-10-17T11:30:51.597Z,19.56
2022-10-17T11:33:29.969Z,19.59
2022-10-17T11:36:06.799Z,19.64
2022-10-17T11:38:46.894Z,19.71
2022-10-17T11:41:23.369Z,19.80
2022-10-17T11:43:58.309Z,19.87
2022-10-17T11:46:29.703Z,19.94
2022-10-17T11:49:07.561Z,20.01
2022-10-17T11:52:03.155Z,20.08
2022-10-17T11:54:39.187Z,20.14
2022-10-17T11:57:36.065Z,20.16
2022-10-17T12:00:22.427Z,20.17
2022-10-17T12:03:05.583Z,20.20
2022-10-17T12:05:42.789Z,20.22
2022-10-17T12:08:19.493Z,20.24
2022-10-17T12:10:59.351Z,20.25
2022-10-17T12:13:53.252Z,20.27
2022-10-17T12:16:52.350Z,20.29
2022-10-17T12:19:28.666Z,20.31
2022-10-17T12:22:01.761Z,20.31
2022-10-17T12:24:38.149Z,20.30
2022-10-17T12:27:45.929Z,20.28
2022-10-17T12:30:22.335Z,20.26
2022-10-17T12:33:07.514Z,20.25
2022-10-17T12:35:40.274Z,20.23
2022-10-17T12:38:25.099Z,20.23
2022-10-17T12:41:11.793Z,20.24
2022-10-17T12:46:51.017Z,20.29
2022-10-17T12:49:41.866Z,20.32
2022-10-17T12:52:49.369Z,20.37
2022-10-17T12:55:21.243Z,20.42
2022-10-17T12:57:56.718Z,20.47
2022-10-17T13:00:34.777Z,20.50
2022-10-17T13:03:18.393Z,20.53
2022-10-17T13:05:52.409Z,20.55
2022-10-17T13:08:26.674Z,20.58
2022-10-17T13:10:58.241Z,20.60
2022-10-17T13:13:48.774Z,20.62
2022-10-17T13:16:32.833Z,20.64
2022-10-17T13:19:05.171Z,20.68
2022-10-17T13:21:35.536Z,20.72
2022-10-17T13:24:22.829Z,20.75
2022-10-17T13:26:53.230Z,20.79
2022-10-17T13:29:25.678Z,20.82
2022-10-17T13:32:01.198Z,20.85
2022-10-17T13:34:32.480Z,20.88
2022-10-17T13:37:05.548Z,20.90
2022-10-17T13:39:58.139Z,20.94
2022-10-17T13:42:33.187Z,21.00
2022-10-17T13:45:04.836Z,21.04
2022-10-17T13:47:40.741Z,21.07
2022-10-17T13:50:43.121Z,21.10
2022-10-17T13:53:20.807Z,21.10
2022-10-17T13:56:15.689Z,21.10
2022-10-17T13:58:48.985Z,21.12
2022-10-17T14:01:20.647Z,21.12
2022-10-17T14:04:02.137Z,21.12
2022-10-17T14:06:47.666Z,21.13
2022-10-17T14:09:25.443Z,21.14
2022-10-17T14:12:05.066Z,21.12
2022-10-17T14:14:58.112Z,21.09
2022-10-17T14:17:29.244Z,21.08
2022-10-17T14:23:20.978Z,21.02
2022-10-17T14:25:44.302Z,20.98
2022-10-17T14:28:18.475Z,20.96
2022-10-17T14:30:56.868Z,20.93
2022-10-17T14:33:30.315Z,20.91
2022-10-17T14:36:03.604Z,20.91
2022-10-17T14:38:35.967Z,20.91
2022-10-17T14:44:08.061Z,20.91
2022-10-17T14:46:49.582Z,20.88
2022-10-17T14:49:26.231Z,20.87
2022-10-17T14:52:29.664Z,20.84
2022-10-17T14:55:02.217Z,20.80
2022-10-17T14:57:44.735Z,20.78
2022-10-17T15:00:18.456Z,20.75
2022-10-17T15:02:50.166Z,20.73
2022-10-17T15:05:23.032Z,20.70
2022-10-17T15:07:54.696Z,20.66
2022-10-17T15:10:33.702Z,20.63
2022-10-17T15:13:26.594Z,20.59
2022-10-17T15:15:55.088Z,20.54
2022-10-17T15:18:25.540Z,20.50
2022-10-17T15:21:04.902Z,20.46
2022-10-17T15:23:37.426Z,20.41
2022-10-17T15:26:14.101Z,20.38
2022-10-17T15:28:45.542Z,20.34
2022-10-17T15:31:18.719Z,20.31
2022-10-17T15:33:50.377Z,20.26
2022-10-17T15:36:27.546Z,20.21
2022-10-17T15:39:00.032Z,20.16
2022-10-17T15:41:32.238Z,20.11
2022-10-17T15:44:02.907Z,20.05
2022-10-17T15:46:35.960Z,20.00
2022-10-17T15:49:08.547Z,19.95
2022-10-17T15:51:38.954Z,19.91
2022-10-17T15:54:09.757Z,19.87
2022-10-17T15:56:42.346Z,19.84
2022-10-17T15:59:17.914Z,19.81
2022-10-17T16:01:49.087Z,19.79
2022-10-17T16:04:19.795Z,19.75
2022-10-17T16:06:50.068Z,19.73
2022-10-17T16:09:20.356Z,19.70
2022-10-17T16:11:50.695Z,19.68
2022-10-17T16:14:21.365Z,19.65
2022-10-17T16:16:52.077Z,19.62
2022-10-17T16:19:23.697Z,19.59
2022-10-17T16:21:56.272Z,19.56
2022-10-17T16:24:28.321Z,19.52
2022-10-17T16:26:59.588Z,19.50
2022-10-17T16:29:29.954Z,19.45
2022-10-17T16:32:00.515Z,19.43
2022-10-17T16:34:32.475Z,19.39
2022-10-17T16:37:03.738Z,19.36
2022-10-17T16:39:34.815Z,19.32
2022-10-17T16:42:05.614Z,19.29
2022-10-17T16:44:36.001Z,19.25
2022-10-17T16:47:06.331Z,19.21
2022-10-17T16:49:40.319Z,19.17
2022-10-17T16:52:14.094Z,19.13
2022-10-17T16:54:45.001Z,19.08
2022-10-17T16:57:15.836Z,19.06
2022-10-17T16:59:48.156Z,19.02
2022-10-17T17:02:21.283Z,18.99
2022-10-17T17:04:52.368Z,18.97
2022-10-17T17:07:24.392Z,18.93
2022-10-17T17:09:55.697Z,18.89
2022-10-17T17:12:26.531Z,18.85
2022-10-17T17:14:57.269Z,18.82
2022-10-17T17:17:36.817Z,18.77
2022-10-17T17:20:18.466Z,18.74
2022-10-17T17:22:50.836Z,18.71
2022-10-17T17:25:22.315Z,18.70
2022-10-17T17:27:52.752Z,18.66
2022-10-17T17:30:23.353Z,18.65
2022-10-17T17:32:54.317Z,18.64
2022-10-17T17:35:25.361Z,18.64
2022-10-17T17:37:55.905Z,18.64
2022-10-17T17:40:26.335Z,18.64
2022-10-17T17:42:57.473Z,18.66
2022-10-17T17:45:28.602Z,18.65
2022-10-17T17:47:59.046Z,18.67
2022-10-17T17:50:29.973Z,18.67
2022-10-17T17:53:01.523Z,18.67
2022-10-17T17:55:32.461Z,18.68
2022-10-17T17:58:04.511Z,18.68
2022-10-17T18:00:35.752Z,18.67
2022-10-17T18:03:07.536Z,18.67
2022-10-17T18:05:41.440Z,18.67
2022-10-17T18:08:12.715Z,18.66
2022-10-17T18:10:47.924Z,18.64
2022-10-17T18:13:19.134Z,18.62
2022-10-17T18:15:51.963Z,18.59
2022-10-17T18:18:23.829Z,18.57
2022-10-17T18:20:55.370Z,18.55
2022-10-17T18:23:26.829Z,18.53
2022-10-17T18:26:01.129Z,18.50
2022-10-17T18:28:34.177Z,18.47
2022-10-17T18:31:08.937Z,18.43
2022-10-17T18:33:39.922Z,18.42
2022-10-17T18:36:12.808Z,18.41
2022-10-17T18:38:44.515Z,18.39
2022-10-17T18:41:16.258Z,18.39
2022-10-17T18:43:48.260Z,18.39
2022-10-17T18:46:20.201Z,18.39
2022-10-17T18:48:51.747Z,18.38
2022-10-17T18:51:24.101Z,18.38
2022-10-17T18:53:58.569Z,18.37
2022-10-17T18:56:30.123Z,18.37
2022-10-17T18:59:01.376Z,18.35
2022-10-17T19:01:32.175Z,18.34
2022-10-17T19:04:03.027Z,18.32
2022-10-17T19:06:34.188Z,18.30
2022-10-17T19:09:07.272Z,18.29
2022-10-17T19:11:39.004Z,18.26
2022-10-17T19:14:13.313Z,18.24
2022-10-17T19:16:45.866Z,18.22
2022-10-17T19:19:19.222Z,18.19
2022-10-17T19:21:49.945Z,18.17
2022-10-17T19:24:21.977Z,18.17
2022-10-17T19:26:54.969Z,18.16
2022-10-17T19:29:28.147Z,18.15
2022-10-17T19:31:58.469Z,18.14
2022-10-17T19:34:29.857Z,18.12
2022-10-17T19:37:00.755Z,18.11
2022-10-17T19:39:32.941Z,18.09
2022-10-17T19:42:06.740Z,18.07
2022-10-17T19:44:38.108Z,18.04
2022-10-17T19:47:09.125Z,18.00
2022-10-17T19:49:39.710Z,17.97
2022-10-17T19:52:10.356Z,17.94
2022-10-17T19:54:41.523Z,17.91
2022-10-17T19:57:12.243Z,17.88
2022-10-17T19:59:43.582Z,17.84
2022-10-17T20:02:15.276Z,17.81
2022-10-17T20:04:54.535Z,17.78
2022-10-17T20:07:36.652Z,17.75
2022-10-17T20:10:08.735Z,17.70
2022-10-17T20:12:39.421Z,17.67
2022-10-17T20:15:10.988Z,17.65
2022-10-17T20:17:41.803Z,17.64
2022-10-17T20:20:13.335Z,17.61
2022-10-17T20:22:44.084Z,17.58
2022-10-17T20:25:15.366Z,17.57
2022-10-17T20:27:46.578Z,17.55
2022-10-17T20:30:17.584Z,17.54
2022-10-17T20:32:48.254Z,17.52
2022-10-17T20:35:19.059Z,17.52
2022-10-17T20:37:49.926Z,17.51
2022-10-17T20:40:34.763Z,17.51
2022-10-17T20:43:07.495Z,17.50
2022-10-17T20:45:51.471Z,17.51
2022-10-17T20:48:23.098Z,17.51
2022-10-17T20:50:54.261Z,17.50
2022-10-17T20:53:36.717Z,17.50
2022-10-17T20:56:11.537Z,17.49
2022-10-17T20:58:42.153Z,17.49
2022-10-17T21:01:13.906Z,17.47
2022-10-17T21:03:46.506Z,17.45
2022-10-17T21:06:18.898Z,17.43
2022-10-17T21:08:50.876Z,17.42
2022-10-17T21:11:23.202Z,17.41
2022-10-17T21:13:59.299Z,17.41
2022-10-17T21:16:31.348Z,17.39
2022-10-17T21:19:02.108Z,17.38
2022-10-17T21:21:34.444Z,17.37
2022-10-17T21:24:07.792Z,17.36
2022-10-17T21:26:39.413Z,17.35
2022-10-17T21:29:11.194Z,17.34
2022-10-17T21:31:43.456Z,17.33
2022-10-17T21:34:17.585Z,17.31
2022-10-17T21:36:48.714Z,17.30
2022-10-17T21:39:20.165Z,17.28
2022-10-17T21:41:50.930Z,17.26
2022-10-17T21:44:23.199Z,17.24
2022-10-17T21:46:55.440Z,17.23
2022-10-17T21:49:27.772Z,17.21
2022-10-17T21:51:58.329Z,17.20
2022-10-17T21:54:28.963Z,17.17
2022-10-17T21:56:59.594Z,17.17
2022-10-17T21:59:31.890Z,17.15
2022-10-17T22:02:03.105Z,17.13
2022-10-17T22:04:33.982Z,17.13
2022-10-17T22:07:04.655Z,17.11
2022-10-17T22:09:35.019Z,17.09
2022-10-17T22:12:05.637Z,17.07
2022-10-17T22:14:36.601Z,17.06
2022-10-17T22:17:07.298Z,17.03
2022-10-17T22:19:38.459Z,17.00
2022-10-17T22:22:09.394Z,16.97
2022-10-17T22:24:40.640Z,16.94
2022-10-17T22:27:11.256Z,16.92
2022-10-17T22:29:42.201Z,16.90
2022-10-17T22:32:12.826Z,16.88
2022-10-17T22:34:43.438Z,16.85
2022-10-17T22:37:13.790Z,16.83
2022-10-17T22:39:44.763Z,16.80
2022-10-17T22:42:15.817Z,16.78
2022-10-17T22:44:46.647Z,16.77
2022-10-17T22:47:17.309Z,16.76
2022-10-17T22:49:47.999Z,16.74
2022-10-17T22:52:18.997Z,16.74
2022-10-17T22:54:50.171Z,16.73
2022-10-17T22:57:20.496Z,16.72
2022-10-17T22:59:51.109Z,16.70
2022-10-17T23:02:21.469Z,16.69
2022-10-17T23:04:52.149Z,16.67
2022-10-17T23:07:22.807Z,16.67
2022-10-17T23:09:53.606Z,16.66
2022-10-17T23:12:24.590Z,16.64
2022-10-17T23:14:55.514Z,16.63
2022-10-17T23:17:26.560Z,16.61
2022-10-17T23:19:57.794Z,16.60
2022-10-17T23:22:28.591Z,16.59
2022-10-17T23:24:59.352Z,16.59
2022-10-17T23:30:05.971Z,16.57
2022-10-17T23:32:36.313Z,16.56
2022-10-17T23:35:07.757Z,16.55
2022-10-17T23:37:39.282Z,16.54
2022-10-17T23:40:11.921Z,16.53
2022-10-17T23:42:42.305Z,16.53
2022-10-17T23:45:13.983Z,16.53
2022-10-17T23:47:44.378Z,16.53
2022-10-17T23:50:15.132Z,16.52
2022-10-17T23:52:45.490Z,16.52
2022-10-17T23:55:16.063Z,16.50
2022-10-17T23:57:46.376Z,16.50
